map of URG home
URG - Airport
Location
City:  Uruguaiana, Rio Grande do Sul, Brazil
Name:Rubem Berta
ICAO:SBUG
IATA:URG

Details
Type:Airport (Aerodrome, Airfield)
Use:International (customs port of entry)
Latitude:2946'56"S (-29.782177)
Longitude:5702'17"W (-57.038188)
Datum:WGS 1984
Elevation:256 ft (78 m)
Variation:12.83W (WMM2015 magnetic declination)
-0.18 annual change
Runways:2
Longest:4921 × 98 ft (1500 × 30 m), paved

Time
Time Zone:UTC-3 (DST-2)
Local Time:

Weather
METAR:SBUG 162200Z 04003KT CAVOK 27/17 Q1006
TAF:SBUG 170300Z 1706/1718 04007KT CAVOK TN18/1708Z TX27/1718Z
BECMG 1713/1715 9999 SCT035
RMK PER

Related Locations
Nearby:
Farthest:HSN: 12405 mi / 19964 km
Zhoushan (Chusan), 33, CN

Find:

   beyond  
but within

Other Information
Maps:
NOTAMs:
Links:
Sources:

  
  • flag of Brazil
  • flag of Rio Grande do Sul
  

Sectional Chart

Flight Planning
at skyvector.com

Satellite Image

Google Maps Satellite view

 

Copyright © 2004-2018 Karl L. Swartz. All rights reserved.
The Great Circle Mapper name and logo are trademarks of the Great Circle Mapper.
All other trademarks mentioned herein belong to their respective owners.
Please see credits for attibutions and further copyright information.

  Follow gcmap on Facebook Follow gcmap on Twitter Follow gcmap on Google+ GCmap on LinkedIn

hCard Microformat

Geo Microformat